createdAt,value
2019-01-09T00:03:52.887Z,44.19
2019-01-09T00:08:56.351Z,44.25
2019-01-09T00:13:59.813Z,44.30
2019-01-09T00:19:03.283Z,44.35
2019-01-09T00:24:06.746Z,44.37
2019-01-09T00:29:10.215Z,44.43
2019-01-09T00:34:13.678Z,44.46
2019-01-09T00:39:17.139Z,44.50
2019-01-09T00:44:20.608Z,44.51
2019-01-09T00:49:24.075Z,44.59
2019-01-09T00:54:27.540Z,44.63
2019-01-09T00:59:31.002Z,44.64
2019-01-09T01:04:46.569Z,44.66
2019-01-09T01:10:14.254Z,44.71
2019-01-09T01:15:26.231Z,44.74
2019-01-09T01:20:49.338Z,44.77
2019-01-09T01:26:10.513Z,44.77
2019-01-09T01:31:34.592Z,44.79
2019-01-09T01:36:57.631Z,44.80
2019-01-09T01:42:23.715Z,44.85
2019-01-09T01:47:51.387Z,44.86
2019-01-09T01:53:12.283Z,44.91
2019-01-09T01:58:35.473Z,44.93
2019-01-09T02:04:04.585Z,44.93
2019-01-09T02:09:43.013Z,44.93
2019-01-09T02:15:19.297Z,44.96
2019-01-09T02:20:40.411Z,44.99
2019-01-09T02:26:02.124Z,45.01
2019-01-09T02:31:20.433Z,45.00
2019-01-09T02:36:23.898Z,45.01
2019-01-09T02:41:27.361Z,45.02
2019-01-09T02:46:30.833Z,45.03
2019-01-09T02:51:34.298Z,45.05
2019-01-09T02:56:37.761Z,45.08
2019-01-09T03:01:41.231Z,45.09
2019-01-09T03:06:44.689Z,45.09
2019-01-09T03:11:48.157Z,45.10
2019-01-09T03:16:51.626Z,45.12
2019-01-09T03:21:55.093Z,45.05
2019-01-09T03:26:58.560Z,45.04
2019-01-09T03:32:02.052Z,44.99
2019-01-09T03:37:05.501Z,45.15
2019-01-09T03:42:08.963Z,45.15
2019-01-09T03:47:12.426Z,45.01
2019-01-09T03:52:15.893Z,45.02
2019-01-09T03:57:19.357Z,45.06
2019-01-09T04:02:22.817Z,45.05
2019-01-09T04:07:26.277Z,45.10
2019-01-09T04:12:29.743Z,45.11
2019-01-09T04:17:33.208Z,45.17
2019-01-09T04:22:36.677Z,45.16
2019-01-09T04:27:40.144Z,45.15
2019-01-09T04:32:43.605Z,45.14
2019-01-09T04:37:47.071Z,45.12
2019-01-09T04:42:50.535Z,45.15
2019-01-09T04:47:54.001Z,45.18
2019-01-09T04:52:57.464Z,45.13
2019-01-09T04:58:00.927Z,45.13
2019-01-09T05:03:04.400Z,45.23
2019-01-09T05:08:07.861Z,45.37
2019-01-09T05:13:11.325Z,45.30
2019-01-09T05:18:14.788Z,45.25
2019-01-09T05:23:18.260Z,45.16
2019-01-09T05:28:21.723Z,45.12
2019-01-09T05:33:25.192Z,45.08
2019-01-09T05:38:28.654Z,45.05
2019-01-09T05:43:32.113Z,45.05
2019-01-09T05:48:35.577Z,45.05
2019-01-09T05:53:39.041Z,45.04
2019-01-09T05:58:42.498Z,45.04
2019-01-09T06:03:45.972Z,45.02
2019-01-09T06:08:49.443Z,45.00
2019-01-09T06:13:52.908Z,44.95
2019-01-09T06:18:56.379Z,44.90
2019-01-09T06:23:59.844Z,44.87
2019-01-09T06:29:03.315Z,44.88
2019-01-09T06:34:06.789Z,44.87
2019-01-09T06:39:10.256Z,44.89
2019-01-09T06:44:13.720Z,44.90
2019-01-09T06:49:17.184Z,44.91
2019-01-09T06:54:20.670Z,44.91
2019-01-09T06:59:24.116Z,44.92
2019-01-09T07:04:27.585Z,44.86
2019-01-09T07:09:31.045Z,44.83
2019-01-09T07:14:34.512Z,44.81
2019-01-09T07:19:37.978Z,44.81
2019-01-09T07:24:41.441Z,44.83
2019-01-09T07:29:44.907Z,44.81
2019-01-09T07:34:48.369Z,44.84
2019-01-09T07:39:51.837Z,44.86
2019-01-09T07:44:55.298Z,44.83
2019-01-09T07:49:58.779Z,44.80
2019-01-09T07:55:02.240Z,44.39
2019-01-09T08:00:08.838Z,30.14
2019-01-09T08:05:12.303Z,29.03
2019-01-09T08:10:15.767Z,30.47
2019-01-09T08:15:19.232Z,32.34
2019-01-09T08:20:22.703Z,34.25
2019-01-09T08:25:26.167Z,36.37
2019-01-09T08:30:29.641Z,37.37
2019-01-09T08:35:33.102Z,37.97
2019-01-09T08:40:36.645Z,38.49
2019-01-09T08:45:40.111Z,38.88
2019-01-09T08:50:43.640Z,39.19
2019-01-09T08:55:47.101Z,39.48
2019-01-09T09:00:50.573Z,39.74
2019-01-09T09:05:54.031Z,39.93
2019-01-09T09:10:57.497Z,40.07
2019-01-09T09:16:00.999Z,40.25
2019-01-09T09:21:04.689Z,40.33
2019-01-09T09:26:08.160Z,40.41
2019-01-09T09:31:11.626Z,40.61
2019-01-09T09:36:15.091Z,40.88
2019-01-09T09:41:18.555Z,41.12
2019-01-09T09:46:22.013Z,41.20
2019-01-09T09:51:25.489Z,41.26
2019-01-09T09:56:28.948Z,41.37
2019-01-09T10:01:32.415Z,41.44
2019-01-09T10:06:35.878Z,41.48
2019-01-09T10:11:39.343Z,41.55
2019-01-09T10:16:42.806Z,41.69
2019-01-09T10:21:46.271Z,41.83
2019-01-09T10:26:49.730Z,41.87
2019-01-09T10:31:53.194Z,41.93
2019-01-09T10:36:56.653Z,42.01
2019-01-09T10:42:00.120Z,42.03
2019-01-09T10:47:03.581Z,42.11
2019-01-09T10:52:07.063Z,42.01
2019-01-09T10:57:10.637Z,42.12
2019-01-09T11:02:14.111Z,42.08
2019-01-09T11:07:17.591Z,42.36
2019-01-09T11:12:21.049Z,42.51
2019-01-09T11:17:24.530Z,42.79
2019-01-09T11:22:28.018Z,42.94
2019-01-09T11:27:31.504Z,43.10
2019-01-09T11:32:35.018Z,43.17
2019-01-09T11:37:38.494Z,43.14
2019-01-09T11:42:41.973Z,43.21
2019-01-09T11:47:45.524Z,43.28
2019-01-09T11:52:49.009Z,43.32
2019-01-09T11:57:52.487Z,43.72
2019-01-09T12:02:56.821Z,43.84
2019-01-09T12:08:00.293Z,43.76
2019-01-09T12:13:03.776Z,43.76
2019-01-09T12:18:07.258Z,43.80
2019-01-09T12:23:10.738Z,43.88
2019-01-09T12:28:14.221Z,44.44
2019-01-09T12:33:17.700Z,45.05
2019-01-09T12:38:21.173Z,46.11
2019-01-09T12:43:24.649Z,46.88
2019-01-09T12:48:28.218Z,46.91
2019-01-09T12:53:33.970Z,46.88
2019-01-09T12:58:36.905Z,47.00
2019-01-09T13:03:40.389Z,46.70
2019-01-09T13:08:43.872Z,46.97
2019-01-09T13:13:47.354Z,46.71
2019-01-09T13:18:50.835Z,46.44
2019-01-09T13:23:54.309Z,31.20
2019-01-09T13:28:57.795Z,29.86
2019-01-09T13:34:01.274Z,30.40
2019-01-09T13:39:07.064Z,31.87
2019-01-09T13:44:10.619Z,34.18
2019-01-09T13:49:14.106Z,35.83
2019-01-09T13:54:17.582Z,36.97
2019-01-09T13:59:21.069Z,38.02
2019-01-09T14:04:24.543Z,38.60
2019-01-09T14:09:28.028Z,38.97
2019-01-09T14:14:31.521Z,39.27
2019-01-09T14:19:34.987Z,39.64
2019-01-09T14:24:38.474Z,39.75
2019-01-09T14:29:41.954Z,39.92
2019-01-09T14:34:45.433Z,40.02
2019-01-09T14:39:48.914Z,40.13
2019-01-09T14:44:52.404Z,40.23
2019-01-09T14:49:55.887Z,40.46
2019-01-09T14:54:59.367Z,40.68
2019-01-09T15:00:03.207Z,40.85
2019-01-09T15:05:08.060Z,40.88
2019-01-09T15:10:14.559Z,41.00
2019-01-09T15:15:18.709Z,41.08
2019-01-09T15:20:22.427Z,41.18
2019-01-09T15:25:25.891Z,41.36
2019-01-09T15:30:30.325Z,41.50
2019-01-09T15:35:33.795Z,41.58
2019-01-09T15:40:37.253Z,41.62
2019-01-09T15:45:40.718Z,41.73
2019-01-09T15:50:44.217Z,41.83
2019-01-09T15:55:47.649Z,41.87
2019-01-09T16:00:51.179Z,41.96
2019-01-09T16:05:54.809Z,42.06
2019-01-09T16:10:58.284Z,42.12
2019-01-09T16:16:01.739Z,42.22
2019-01-09T16:21:05.280Z,42.28
2019-01-09T16:26:08.746Z,42.38
2019-01-09T16:31:14.862Z,42.50
2019-01-09T16:36:18.340Z,42.52
2019-01-09T16:41:21.826Z,42.49
2019-01-09T16:46:25.297Z,42.51
2019-01-09T16:51:28.782Z,43.05
2019-01-09T16:56:32.269Z,43.38
2019-01-09T17:01:35.758Z,45.20
2019-01-09T17:06:39.239Z,46.94
2019-01-09T17:11:42.701Z,47.10
2019-01-09T17:16:46.167Z,46.76
2019-01-09T17:21:49.639Z,46.55
2019-01-09T17:26:53.101Z,46.09
2019-01-09T17:31:56.738Z,45.98
2019-01-09T17:37:00.204Z,45.84
2019-01-09T17:42:03.946Z,45.60
2019-01-09T17:47:07.412Z,45.44
2019-01-09T17:52:11.152Z,45.28
2019-01-09T17:57:14.613Z,45.19
2019-01-09T18:02:18.079Z,45.12
2019-01-09T18:07:21.544Z,45.11
2019-01-09T18:12:25.021Z,45.04
2019-01-09T18:17:28.487Z,45.03
2019-01-09T18:22:31.954Z,44.90
2019-01-09T18:27:35.423Z,44.85
2019-01-09T18:32:38.952Z,44.86
2019-01-09T18:37:54.773Z,44.84
2019-01-09T18:43:17.941Z,44.80
2019-01-09T18:48:24.453Z,44.87
2019-01-09T18:53:28.459Z,44.83
2019-01-09T18:58:31.931Z,44.86
2019-01-09T19:03:35.393Z,44.81
2019-01-09T19:08:39.005Z,44.80
2019-01-09T19:13:42.466Z,44.80
2019-01-09T19:18:45.935Z,44.76
2019-01-09T19:23:49.403Z,44.83
2019-01-09T19:28:52.940Z,44.83
2019-01-09T19:33:56.405Z,44.84
2019-01-09T19:39:00.055Z,44.88
2019-01-09T19:44:03.515Z,44.89
2019-01-09T19:49:07.049Z,44.89
2019-01-09T19:54:10.510Z,44.87
2019-01-09T19:59:13.980Z,45.10
2019-01-09T20:04:17.448Z,45.10
2019-01-09T20:09:20.914Z,44.97
2019-01-09T20:14:24.397Z,44.96
2019-01-09T20:19:27.892Z,44.98
2019-01-09T20:24:31.365Z,44.98
2019-01-09T20:29:34.792Z,44.98
2019-01-09T20:34:38.328Z,44.96
2019-01-09T20:39:41.856Z,44.98
2019-01-09T20:44:45.285Z,44.97
2019-01-09T20:49:48.759Z,44.98
2019-01-09T20:54:52.476Z,45.00
2019-01-09T20:59:55.935Z,45.01
2019-01-09T21:04:59.570Z,44.98
2019-01-09T21:10:03.378Z,44.97
2019-01-09T21:15:09.897Z,45.01
2019-01-09T21:20:16.448Z,45.04
2019-01-09T21:25:20.348Z,45.07
2019-01-09T21:30:25.971Z,45.09
2019-01-09T21:35:29.434Z,45.08
2019-01-09T21:40:33.942Z,45.13
2019-01-09T21:45:37.410Z,45.13
2019-01-09T21:50:41.110Z,45.19
2019-01-09T21:55:44.574Z,45.17
2019-01-09T22:00:48.054Z,45.25
2019-01-09T22:05:51.981Z,45.24
2019-01-09T22:10:55.443Z,45.30
2019-01-09T22:15:58.915Z,45.25
2019-01-09T22:21:02.380Z,45.32
2019-01-09T22:26:06.078Z,45.35
2019-01-09T22:31:11.019Z,45.42
2019-01-09T22:36:14.492Z,45.44
2019-01-09T22:41:18.125Z,45.41
2019-01-09T22:46:21.695Z,45.42
2019-01-09T22:51:25.174Z,45.48
2019-01-09T22:56:28.634Z,45.46
2019-01-09T23:01:32.374Z,45.46
2019-01-09T23:06:35.834Z,45.49
2019-01-09T23:11:40.671Z,45.53
2019-01-09T23:16:44.131Z,45.52
2019-01-09T23:21:47.921Z,45.62
2019-01-09T23:26:51.409Z,45.60
2019-01-09T23:31:54.881Z,45.63
2019-01-09T23:36:58.344Z,45.62
2019-01-09T23:42:01.821Z,45.68
2019-01-09T23:47:05.286Z,45.74
2019-01-09T23:52:08.757Z,45.75
2019-01-09T23:57:12.228Z,45.77
